createdAt,value
2022-12-03T00:00:46.542Z,27.03
2022-12-03T00:03:20.810Z,26.63
2022-12-03T00:06:05.271Z,26.57
2022-12-03T00:08:35.342Z,26.70
2022-12-03T00:11:02.686Z,27.83
2022-12-03T00:13:29.496Z,28.10
2022-12-03T00:15:56.390Z,27.13
2022-12-03T00:18:23.237Z,27.23
2022-12-03T00:20:50.050Z,26.37
2022-12-03T00:23:16.809Z,26.50
2022-12-03T00:25:43.622Z,27.00
2022-12-03T00:28:10.458Z,28.23
2022-12-03T00:30:37.258Z,29.07
2022-12-03T00:33:04.504Z,28.03
2022-12-03T00:35:31.317Z,27.53
2022-12-03T00:37:58.065Z,26.40
2022-12-03T00:40:24.840Z,27.90
2022-12-03T00:42:51.588Z,27.13
2022-12-03T00:45:18.442Z,27.53
2022-12-03T00:47:45.202Z,26.33
2022-12-03T00:50:12.384Z,25.37
2022-12-03T00:52:39.165Z,26.00
2022-12-03T00:55:06.664Z,26.07
2022-12-03T00:57:33.443Z,25.10
2022-12-03T01:00:00.185Z,26.00
2022-12-03T01:02:27.022Z,24.67
2022-12-03T01:04:54.064Z,24.73
2022-12-03T01:07:21.124Z,23.80
2022-12-03T01:09:47.966Z,24.73
2022-12-03T01:12:14.795Z,25.20
2022-12-03T01:14:41.572Z,26.17
2022-12-03T01:17:08.331Z,25.83
2022-12-03T01:19:35.861Z,24.27
2022-12-03T01:22:02.716Z,25.50
2022-12-03T01:24:29.842Z,24.37
2022-12-03T01:26:57.617Z,25.03
2022-12-03T01:29:24.779Z,26.50
2022-12-03T01:32:10.117Z,26.37
2022-12-03T01:34:36.905Z,24.37
2022-12-03T01:37:03.859Z,25.83
2022-12-03T01:39:30.744Z,24.37
2022-12-03T01:41:58.879Z,25.13
2022-12-03T01:44:34.602Z,25.13
2022-12-03T01:47:07.141Z,25.23
2022-12-03T01:49:41.955Z,25.47
2022-12-03T01:52:14.136Z,27.37
2022-12-03T01:54:45.970Z,26.83
2022-12-03T01:57:24.636Z,25.73
2022-12-03T01:59:52.518Z,25.90
2022-12-03T02:02:27.136Z,23.93
2022-12-03T02:04:54.836Z,24.17
2022-12-03T02:07:28.490Z,24.57
2022-12-03T02:09:57.863Z,25.90
2022-12-03T02:12:31.472Z,24.73
2022-12-03T02:14:59.234Z,25.37
2022-12-03T02:17:27.827Z,24.87
2022-12-03T02:19:55.971Z,25.40
2022-12-03T02:22:25.818Z,26.07
2022-12-03T02:24:58.767Z,24.90
2022-12-03T02:27:27.122Z,24.73
2022-12-03T02:29:54.101Z,25.80
2022-12-03T02:32:23.507Z,24.70
2022-12-03T02:34:51.055Z,25.97
2022-12-03T02:37:23.930Z,25.33
2022-12-03T02:39:54.172Z,23.97
2022-12-03T02:42:36.534Z,24.60
2022-12-03T02:45:22.228Z,24.60
2022-12-03T02:47:59.352Z,23.47
2022-12-03T02:50:39.542Z,24.83
2022-12-03T02:53:09.969Z,25.43
2022-12-03T02:55:37.710Z,23.73
2022-12-03T02:58:05.513Z,24.00
2022-12-03T03:00:33.184Z,24.57
2022-12-03T03:03:01.510Z,24.37
2022-12-03T03:05:28.794Z,26.33
2022-12-03T03:07:58.330Z,23.70
2022-12-03T03:10:26.221Z,26.17
2022-12-03T03:12:54.889Z,26.37
2022-12-03T03:15:23.261Z,24.80
2022-12-03T03:17:50.671Z,26.03
2022-12-03T03:20:18.668Z,27.13
2022-12-03T03:22:45.453Z,24.77
2022-12-03T03:25:18.750Z,25.53
2022-12-03T03:27:46.106Z,25.33
2022-12-03T03:30:14.287Z,27.93
2022-12-03T03:32:42.595Z,29.40
2022-12-03T03:35:10.789Z,31.70
2022-12-03T03:37:38.261Z,28.37
2022-12-03T03:40:05.934Z,28.57
2022-12-03T03:42:32.942Z,26.47
2022-12-03T03:45:00.023Z,25.93
2022-12-03T03:47:27.024Z,26.93
2022-12-03T03:49:54.464Z,25.27
2022-12-03T03:52:21.462Z,25.90
2022-12-03T03:54:48.440Z,27.13
2022-12-03T03:57:15.856Z,24.97
2022-12-03T03:59:42.837Z,25.60
2022-12-03T04:02:24.638Z,25.57
2022-12-03T04:04:52.641Z,25.87
2022-12-03T04:07:19.867Z,25.40
2022-12-03T04:09:46.658Z,24.53
2022-12-03T04:12:31.940Z,23.97
2022-12-03T04:14:58.844Z,23.73
2022-12-03T04:17:25.796Z,25.30
2022-12-03T04:19:52.596Z,25.93
2022-12-03T04:22:37.790Z,27.30
2022-12-03T04:25:24.099Z,25.70
2022-12-03T04:28:09.306Z,25.83
2022-12-03T04:30:36.150Z,25.43
2022-12-03T04:33:21.805Z,24.80
2022-12-03T04:35:48.831Z,23.47
2022-12-03T04:38:16.627Z,23.63
2022-12-03T04:41:01.340Z,23.80
2022-12-03T04:43:28.824Z,22.60
2022-12-03T04:45:55.699Z,24.47
2022-12-03T04:48:22.553Z,23.17
2022-12-03T04:50:49.377Z,25.03
2022-12-03T04:53:16.275Z,24.70
2022-12-03T04:55:43.092Z,24.33
2022-12-03T04:58:10.427Z,23.40
2022-12-03T05:00:37.345Z,24.10
2022-12-03T05:03:04.269Z,25.47
2022-12-03T05:05:31.129Z,25.40
2022-12-03T05:07:57.978Z,24.07
2022-12-03T05:10:24.857Z,25.53
2022-12-03T05:12:51.726Z,24.10
2022-12-03T05:15:18.543Z,23.53
2022-12-03T05:17:45.343Z,22.60
2022-12-03T05:20:31.096Z,24.70
2022-12-03T05:22:57.919Z,21.10
2022-12-03T05:25:24.731Z,24.53
2022-12-03T05:27:51.544Z,24.30
2022-12-03T05:30:18.415Z,24.77
2022-12-03T05:32:45.204Z,23.23
2022-12-03T05:35:12.175Z,23.57
2022-12-03T05:37:38.979Z,22.33
2022-12-03T05:40:06.680Z,22.83
2022-12-03T05:42:52.036Z,22.37
2022-12-03T05:45:19.336Z,22.70
2022-12-03T05:47:46.217Z,22.67
2022-12-03T05:50:13.086Z,22.67
2022-12-03T05:52:42.859Z,23.23
2022-12-03T05:55:11.800Z,22.73
2022-12-03T05:57:38.891Z,24.60
2022-12-03T06:00:09.321Z,24.67
2022-12-03T06:02:36.244Z,24.60
2022-12-03T06:05:03.343Z,24.57
2022-12-03T06:07:30.218Z,23.97
2022-12-03T06:09:57.056Z,24.93
2022-12-03T06:12:23.866Z,23.80
2022-12-03T06:14:50.861Z,25.53
2022-12-03T06:17:17.768Z,24.60
2022-12-03T06:19:44.607Z,24.07
2022-12-03T06:22:11.424Z,26.67
2022-12-03T06:24:38.354Z,26.70
2022-12-03T06:27:07.046Z,25.90
2022-12-03T06:29:33.880Z,25.60
2022-12-03T06:32:00.705Z,26.93
2022-12-03T06:34:27.488Z,26.33
2022-12-03T06:36:54.342Z,25.60
2022-12-03T06:39:21.432Z,25.77
2022-12-03T06:41:48.291Z,25.57
2022-12-03T06:44:15.199Z,25.87
2022-12-03T06:46:42.051Z,26.13
2022-12-03T06:49:09.273Z,27.33
2022-12-03T06:51:36.583Z,27.53
2022-12-03T06:54:04.647Z,26.53
2022-12-03T06:56:36.758Z,25.37
2022-12-03T06:59:05.992Z,26.90
2022-12-03T07:01:32.939Z,25.17
2022-12-03T07:03:59.740Z,26.10
2022-12-03T07:06:26.611Z,26.80
2022-12-03T07:08:53.425Z,25.50
2022-12-03T07:11:34.849Z,23.87
2022-12-03T07:14:05.551Z,25.90
2022-12-03T07:16:47.466Z,25.20
2022-12-03T07:19:14.968Z,26.17
2022-12-03T07:21:42.068Z,26.30
2022-12-03T07:24:09.128Z,24.73
2022-12-03T07:26:36.091Z,26.23
2022-12-03T07:29:02.943Z,26.00
2022-12-03T07:31:29.918Z,29.83
2022-12-03T07:33:56.858Z,28.93
2022-12-03T07:36:23.695Z,28.43
2022-12-03T07:38:50.529Z,26.10
2022-12-03T07:41:17.483Z,26.30
2022-12-03T07:43:45.256Z,26.70
2022-12-03T07:46:12.631Z,25.33
2022-12-03T07:48:40.601Z,25.27
2022-12-03T07:51:08.217Z,27.87
2022-12-03T07:53:36.480Z,27.03
2022-12-03T07:56:04.875Z,25.70
2022-12-03T07:58:31.751Z,26.20
2022-12-03T08:00:58.769Z,27.60
2022-12-03T08:03:25.684Z,26.27
2022-12-03T08:05:52.666Z,26.30
2022-12-03T08:08:19.547Z,24.23
2022-12-03T08:10:46.441Z,23.37
2022-12-03T08:13:15.610Z,24.87
2022-12-03T08:15:42.706Z,22.73
2022-12-03T08:18:15.969Z,27.23
2022-12-03T08:20:44.565Z,26.27
2022-12-03T08:23:17.910Z,25.97
2022-12-03T08:25:45.708Z,25.30
2022-12-03T08:28:12.657Z,24.77
2022-12-03T08:30:40.351Z,25.30
2022-12-03T08:33:20.314Z,24.60
2022-12-03T08:35:50.959Z,24.07
2022-12-03T08:38:21.045Z,22.80
2022-12-03T08:40:51.077Z,25.53
2022-12-03T08:43:25.013Z,25.37
2022-12-03T08:45:57.102Z,25.53
2022-12-03T08:48:41.787Z,26.13
2022-12-03T08:51:23.959Z,26.60
2022-12-03T08:53:59.683Z,26.23
2022-12-03T08:56:30.243Z,24.33
2022-12-03T08:59:27.722Z,25.23
2022-12-03T09:01:55.180Z,24.37
2022-12-03T09:04:22.007Z,24.80
2022-12-03T09:06:49.498Z,26.07
2022-12-03T09:09:16.725Z,26.30
2022-12-03T09:11:44.313Z,25.23
2022-12-03T09:14:18.282Z,22.93
2022-12-03T09:16:50.632Z,22.30
2022-12-03T09:19:17.535Z,23.50
2022-12-03T09:21:48.646Z,23.37
2022-12-03T09:24:15.505Z,23.20
2022-12-03T09:26:42.415Z,22.77
2022-12-03T09:29:12.459Z,23.40
2022-12-03T09:31:40.421Z,22.70
2022-12-03T09:34:07.866Z,23.67
2022-12-03T09:36:34.746Z,22.80
2022-12-03T09:39:01.578Z,21.90
2022-12-03T09:41:28.661Z,23.37
2022-12-03T09:44:05.189Z,22.50
2022-12-03T09:46:34.966Z,21.87
2022-12-03T09:49:02.852Z,25.83
2022-12-03T09:51:33.784Z,22.47
2022-12-03T09:54:06.502Z,21.73
2022-12-03T09:56:37.042Z,21.50
2022-12-03T09:59:12.652Z,21.70
2022-12-03T10:01:39.496Z,20.10
2022-12-03T10:04:06.987Z,22.43
2022-12-03T10:06:33.958Z,21.13
2022-12-03T10:09:01.619Z,21.23
2022-12-03T10:11:29.959Z,20.37
2022-12-03T10:13:58.537Z,22.50
2022-12-03T10:16:26.421Z,26.03
2022-12-03T10:18:55.969Z,25.70
2022-12-03T10:21:39.359Z,24.50
2022-12-03T10:24:25.768Z,24.00
2022-12-03T10:26:54.925Z,21.40
2022-12-03T10:29:34.101Z,21.87
2022-12-03T10:32:06.297Z,22.60
2022-12-03T10:34:35.480Z,21.97
2022-12-03T10:37:14.421Z,20.83
2022-12-03T10:39:55.996Z,20.50
2022-12-03T10:42:24.875Z,20.07
2022-12-03T10:45:09.711Z,20.90
2022-12-03T10:47:36.883Z,18.73
2022-12-03T10:50:07.107Z,18.00
2022-12-03T10:52:33.945Z,18.70
2022-12-03T10:55:00.769Z,18.47
2022-12-03T10:57:27.572Z,18.73
2022-12-03T10:59:54.432Z,17.57
2022-12-03T11:02:30.522Z,21.43
2022-12-03T11:04:59.123Z,20.77
2022-12-03T11:07:26.337Z,19.57
2022-12-03T11:09:58.839Z,18.43
2022-12-03T11:12:29.126Z,18.00
2022-12-03T11:14:56.824Z,22.07
2022-12-03T11:17:47.553Z,17.70
2022-12-03T11:20:46.450Z,17.37
2022-12-03T11:23:13.273Z,18.17
2022-12-03T11:25:50.462Z,16.37
2022-12-03T11:28:17.364Z,16.80
2022-12-03T11:30:56.882Z,18.03
2022-12-03T11:33:25.299Z,16.43
2022-12-03T11:36:04.458Z,17.17
2022-12-03T11:38:37.399Z,20.67
2022-12-03T11:41:16.220Z,21.50
2022-12-03T11:43:52.412Z,28.53
2022-12-03T11:46:25.341Z,24.90
2022-12-03T11:48:54.319Z,22.03
2022-12-03T11:51:23.414Z,20.30
2022-12-03T11:53:52.470Z,19.30
2022-12-03T11:56:30.569Z,18.37
2022-12-03T11:59:02.826Z,17.67
2022-12-03T12:01:39.064Z,19.27
2022-12-03T12:04:07.760Z,17.83
2022-12-03T12:06:42.832Z,16.67
2022-12-03T12:09:10.496Z,17.13
2022-12-03T12:11:41.350Z,16.47
2022-12-03T12:14:13.020Z,14.10
2022-12-03T12:16:52.798Z,15.07
2022-12-03T12:19:39.944Z,14.80
2022-12-03T12:22:20.500Z,13.80
2022-12-03T12:24:51.632Z,14.57
2022-12-03T12:27:21.058Z,19.07
2022-12-03T12:29:54.299Z,17.57
2022-12-03T12:32:29.574Z,17.73
2022-12-03T12:35:20.507Z,14.57
2022-12-03T12:37:59.055Z,16.90
2022-12-03T12:40:32.353Z,16.40
2022-12-03T12:43:12.621Z,15.63
2022-12-03T12:45:42.896Z,15.87
2022-12-03T12:48:26.422Z,16.07
2022-12-03T12:51:15.235Z,13.47
2022-12-03T12:53:49.669Z,12.80
2022-12-03T12:56:19.556Z,12.53
2022-12-03T12:58:46.386Z,12.47
2022-12-03T13:01:22.187Z,12.40
2022-12-03T13:03:51.854Z,10.80
2022-12-03T13:06:21.313Z,10.77
2022-12-03T13:08:49.798Z,11.30
2022-12-03T13:11:41.468Z,10.80
2022-12-03T13:14:31.935Z,11.20
2022-12-03T13:17:01.439Z,11.27
2022-12-03T13:19:30.496Z,11.97
2022-12-03T13:22:02.120Z,11.33
2022-12-03T13:24:35.905Z,10.67
2022-12-03T13:27:05.699Z,10.57
2022-12-03T13:29:32.546Z,11.93
2022-12-03T13:32:02.606Z,11.70
2022-12-03T13:34:33.609Z,11.13
2022-12-03T13:37:01.875Z,12.40
2022-12-03T13:39:32.490Z,10.37
2022-12-03T13:42:26.711Z,9.83
2022-12-03T13:44:54.329Z,10.50
2022-12-03T13:47:22.875Z,11.87
2022-12-03T13:49:55.353Z,11.63
2022-12-03T13:52:25.109Z,14.13
2022-12-03T13:54:56.651Z,12.87
2022-12-03T13:57:23.599Z,12.70
2022-12-03T13:59:50.494Z,12.07
2022-12-03T14:02:17.413Z,11.67
2022-12-03T14:04:44.261Z,11.63
2022-12-03T14:07:11.190Z,13.33
2022-12-03T14:09:37.973Z,11.97
2022-12-03T14:12:23.208Z,11.80
2022-12-03T14:14:49.970Z,12.10
2022-12-03T14:17:17.022Z,12.70
2022-12-03T14:19:43.970Z,12.00
2022-12-03T14:22:11.521Z,11.90
2022-12-03T14:24:42.717Z,9.93
2022-12-03T14:27:09.532Z,9.80
2022-12-03T14:29:36.479Z,10.50
2022-12-03T14:32:03.348Z,19.93
2022-12-03T14:34:30.320Z,16.17
2022-12-03T14:36:57.503Z,12.83
2022-12-03T14:39:24.274Z,10.00
2022-12-03T14:42:09.556Z,10.50
2022-12-03T14:44:36.395Z,10.73
2022-12-03T14:47:03.595Z,10.67
2022-12-03T14:49:30.587Z,12.07
2022-12-03T14:51:57.860Z,11.80
2022-12-03T14:54:24.773Z,11.80
2022-12-03T14:56:51.685Z,12.30
2022-12-03T14:59:22.991Z,10.80
2022-12-03T15:01:53.351Z,11.67
2022-12-03T15:04:20.384Z,10.43
2022-12-03T15:06:47.292Z,10.07
2022-12-03T15:09:14.159Z,9.57
2022-12-03T15:11:45.923Z,9.27
2022-12-03T15:14:13.388Z,9.07
2022-12-03T15:16:40.300Z,8.60
2022-12-03T15:19:07.243Z,8.50
2022-12-03T15:21:35.059Z,9.27
2022-12-03T15:24:02.597Z,10.63
2022-12-03T15:26:30.032Z,12.57
2022-12-03T15:28:57.788Z,10.93
2022-12-03T15:31:24.872Z,9.40
2022-12-03T15:33:51.762Z,10.27
2022-12-03T15:36:18.646Z,9.70
2022-12-03T15:38:45.533Z,10.03
2022-12-03T15:41:21.745Z,9.73
2022-12-03T15:43:49.041Z,9.97
2022-12-03T15:46:16.219Z,10.20
2022-12-03T15:48:43.098Z,10.37
2022-12-03T15:51:10.319Z,10.00
2022-12-03T15:53:37.211Z,9.60
2022-12-03T15:56:04.307Z,10.90
2022-12-03T15:58:31.250Z,9.67
2022-12-03T16:00:59.411Z,9.57
2022-12-03T16:03:26.400Z,9.37
2022-12-03T16:05:53.258Z,10.03
2022-12-03T16:08:20.136Z,9.43
2022-12-03T16:10:47.024Z,10.27
2022-12-03T16:13:13.860Z,10.90
2022-12-03T16:15:40.799Z,10.77
2022-12-03T16:18:07.758Z,10.77
2022-12-03T16:20:34.596Z,13.50
2022-12-03T16:23:01.661Z,16.47
2022-12-03T16:25:39.524Z,12.93
2022-12-03T16:28:06.736Z,11.50
2022-12-03T16:30:33.678Z,12.80
2022-12-03T16:33:00.570Z,12.47
2022-12-03T16:35:27.543Z,10.10
2022-12-03T16:37:54.421Z,10.17
2022-12-03T16:40:21.462Z,11.27
2022-12-03T16:42:48.354Z,10.20
2022-12-03T16:45:34.622Z,10.00
2022-12-03T16:48:02.391Z,10.43
2022-12-03T16:50:30.441Z,9.53
2022-12-03T16:52:58.044Z,11.63
2022-12-03T16:55:25.369Z,10.47
2022-12-03T16:57:52.237Z,9.60
2022-12-03T17:00:21.803Z,10.33
2022-12-03T17:02:48.831Z,10.87
2022-12-03T17:05:15.786Z,11.50
2022-12-03T17:07:42.715Z,8.73
2022-12-03T17:10:10.136Z,9.90
2022-12-03T17:13:01.201Z,11.83
2022-12-03T17:15:23.801Z,10.70
2022-12-03T17:17:50.633Z,10.57
2022-12-03T17:20:18.089Z,10.43
2022-12-03T17:22:45.039Z,11.03
2022-12-03T17:25:12.576Z,11.83
2022-12-03T17:27:45.116Z,10.33
2022-12-03T17:30:13.330Z,10.10
2022-12-03T17:32:41.443Z,10.87
2022-12-03T17:35:09.305Z,9.83
2022-12-03T17:37:37.040Z,9.83
2022-12-03T17:40:08.421Z,10.40
2022-12-03T17:42:35.430Z,10.40
2022-12-03T17:45:02.394Z,10.40
2022-12-03T17:47:29.375Z,12.27
2022-12-03T17:49:56.768Z,14.70
2022-12-03T17:52:24.136Z,10.90
2022-12-03T17:57:38.065Z,10.50
2022-12-03T18:00:06.199Z,10.27
2022-12-03T18:02:33.201Z,10.23
2022-12-03T18:05:00.122Z,10.33
2022-12-03T18:07:27.074Z,10.27
2022-12-03T18:09:54.212Z,11.87
2022-12-03T18:12:21.335Z,11.37
2022-12-03T18:14:48.200Z,11.23
2022-12-03T18:17:15.175Z,10.20
2022-12-03T18:19:42.136Z,24.50
2022-12-03T18:22:13.339Z,12.33
2022-12-03T18:24:40.906Z,10.60
2022-12-03T18:27:08.397Z,11.20
2022-12-03T18:29:35.448Z,11.23
2022-12-03T18:32:02.553Z,11.50
2022-12-03T18:34:29.397Z,11.30
2022-12-03T18:36:56.260Z,11.27
2022-12-03T18:39:31.539Z,11.30
2022-12-03T18:41:58.382Z,11.23
2022-12-03T18:44:26.113Z,11.77
2022-12-03T18:46:54.536Z,12.30
2022-12-03T18:49:22.271Z,14.20
2022-12-03T18:51:53.301Z,12.77
2022-12-03T18:54:24.371Z,10.73
2022-12-03T18:56:51.231Z,12.87
2022-12-03T18:59:18.004Z,18.17
2022-12-03T19:01:45.281Z,18.20
2022-12-03T19:04:12.405Z,14.27
2022-12-03T19:06:39.336Z,13.87
2022-12-03T19:09:06.293Z,13.27
2022-12-03T19:11:34.100Z,14.20
2022-12-03T19:14:02.907Z,13.53
2022-12-03T19:16:29.920Z,12.83
2022-12-03T19:18:57.289Z,12.90
2022-12-03T19:21:25.196Z,12.73
2022-12-03T19:24:22.664Z,12.73
2022-12-03T19:26:40.211Z,13.93
2022-12-03T19:29:07.037Z,13.20
2022-12-03T19:31:33.932Z,14.33
2022-12-03T19:34:00.770Z,13.47
2022-12-03T19:36:30.055Z,12.67
2022-12-03T19:38:59.010Z,15.37
2022-12-03T19:41:28.103Z,15.70
2022-12-03T19:43:56.238Z,16.80
2022-12-03T19:46:25.496Z,16.60
2022-12-03T19:48:53.630Z,16.57
2022-12-03T19:51:34.301Z,14.07
2022-12-03T19:54:06.723Z,14.03
2022-12-03T19:56:34.357Z,13.50
2022-12-03T19:59:01.142Z,12.90
2022-12-03T20:01:30.833Z,12.70
2022-12-03T20:03:59.938Z,12.63
2022-12-03T20:06:32.692Z,12.83
2022-12-03T20:09:06.941Z,12.67
2022-12-03T20:11:34.954Z,14.50
2022-12-03T20:14:07.243Z,13.70
2022-12-03T20:16:34.907Z,13.53
2022-12-03T20:19:05.092Z,13.80
2022-12-03T20:21:34.390Z,13.77
2022-12-03T20:24:01.470Z,13.00
2022-12-03T20:26:29.375Z,14.00
2022-12-03T20:28:57.007Z,14.50
2022-12-03T20:31:26.593Z,13.90
2022-12-03T20:33:56.470Z,13.53
2022-12-03T20:36:24.156Z,13.30
2022-12-03T20:39:00.483Z,13.33
2022-12-03T20:41:28.085Z,14.40
2022-12-03T20:43:55.265Z,19.57
2022-12-03T20:46:25.818Z,15.77
2022-12-03T20:48:56.445Z,14.67
2022-12-03T20:51:26.670Z,13.33
2022-12-03T20:53:54.019Z,14.20
2022-12-03T20:56:23.847Z,13.43
2022-12-03T20:58:51.184Z,13.00
2022-12-03T21:01:21.186Z,13.07
2022-12-03T21:03:49.521Z,13.00
2022-12-03T21:06:17.533Z,12.47
2022-12-03T21:08:45.239Z,12.77
2022-12-03T21:11:14.846Z,12.90
2022-12-03T21:13:43.807Z,12.90
2022-12-03T21:16:13.809Z,13.13
2022-12-03T21:18:41.641Z,12.93
2022-12-03T21:21:10.721Z,13.20
2022-12-03T21:23:37.888Z,13.23
2022-12-03T21:26:10.636Z,12.90
2022-12-03T21:28:43.377Z,14.10
2022-12-03T21:31:19.352Z,13.63
2022-12-03T21:33:46.722Z,13.47
2022-12-03T21:36:16.106Z,14.20
2022-12-03T21:38:44.549Z,13.00
2022-12-03T21:41:12.466Z,13.33
2022-12-03T21:43:39.347Z,13.17
2022-12-03T21:47:09.616Z,12.67
2022-12-03T21:49:00.052Z,12.20
2022-12-03T21:51:26.988Z,13.87
2022-12-03T21:53:54.408Z,12.97
2022-12-03T21:56:21.624Z,13.10
2022-12-03T21:58:48.698Z,13.23
2022-12-03T22:01:26.058Z,13.20
2022-12-03T22:03:53.404Z,12.57
2022-12-03T22:06:21.434Z,15.70
2022-12-03T22:08:49.595Z,13.77
2022-12-03T22:11:19.916Z,14.60
2022-12-03T22:13:49.747Z,13.70
2022-12-03T22:16:20.235Z,12.83
2022-12-03T22:18:48.900Z,13.33
2022-12-03T22:21:20.282Z,12.50
2022-12-03T22:23:48.817Z,13.63
2022-12-03T22:26:18.651Z,12.20
2022-12-03T22:28:48.858Z,12.53
2022-12-03T22:31:21.791Z,12.37
2022-12-03T22:33:49.887Z,13.30
2022-12-03T22:36:21.888Z,13.37
2022-12-03T22:38:54.554Z,12.20
2022-12-03T22:41:22.264Z,12.57
2022-12-03T22:43:50.506Z,13.10
2022-12-03T22:46:17.874Z,13.43
2022-12-03T22:48:46.836Z,12.13
2022-12-03T22:51:22.236Z,12.70
2022-12-03T22:53:53.770Z,12.57
2022-12-03T22:56:22.358Z,12.60
2022-12-03T22:58:49.930Z,13.97
2022-12-03T23:01:38.101Z,13.50
2022-12-03T23:04:05.857Z,14.23
2022-12-03T23:06:35.091Z,12.43
2022-12-03T23:09:03.215Z,12.37
2022-12-03T23:11:30.239Z,13.10
2022-12-03T23:13:58.974Z,13.23
2022-12-03T23:16:29.548Z,12.77
2022-12-03T23:18:59.040Z,12.67
2022-12-03T23:21:30.269Z,12.77
2022-12-03T23:23:58.666Z,13.13
2022-12-03T23:26:25.634Z,13.80
2022-12-03T23:28:58.590Z,12.30
2022-12-03T23:31:28.448Z,13.67
2022-12-03T23:33:56.264Z,12.00
2022-12-03T23:36:24.716Z,13.33
2022-12-03T23:38:51.790Z,13.40
2022-12-03T23:41:20.739Z,13.27
2022-12-03T23:43:47.950Z,13.87
2022-12-03T23:46:23.216Z,12.10
2022-12-03T23:48:51.228Z,13.50
2022-12-03T23:51:20.901Z,13.17
2022-12-03T23:53:48.367Z,12.50
2022-12-03T23:56:24.040Z,13.17
2022-12-03T23:58:51.570Z,12.33
